sensor_id;sensor_type;location;lat;lon;timestamp;pressure;altitude;pressure_sealevel;temperature;humidity
4392;BME280;2210;51.938;8.488;2023-06-22T00:00:11;100793.72;;;20.28;100.00
4392;BME280;2210;51.938;8.488;2023-06-22T00:04:15;100792.06;;;20.27;100.00
4392;BME280;2210;51.938;8.488;2023-06-22T00:08:21;100792.06;;;20.27;100.00
4392;BME280;2210;51.938;8.488;2023-06-22T00:12:21;100779.72;;;20.28;100.00
4392;BME280;2210;51.938;8.488;2023-06-22T00:16:22;100782.53;;;20.28;100.00
4392;BME280;2210;51.938;8.488;2023-06-22T00:20:22;100767.22;;;20.20;100.00
4392;BME280;2210;51.938;8.488;2023-06-22T00:24:24;100768.06;;;20.20;100.00
4392;BME280;2210;51.938;8.488;2023-06-22T00:28:24;100757.47;;;20.17;100.00
4392;BME280;2210;51.938;8.488;2023-06-22T00:32:33;100761.38;;;20.16;100.00
4392;BME280;2210;51.938;8.488;2023-06-22T00:36:40;100764.72;;;20.18;100.00
4392;BME280;2210;51.938;8.488;2023-06-22T00:40:40;100755.53;;;20.13;100.00
4392;BME280;2210;51.938;8.488;2023-06-22T00:44:41;100743.50;;;20.12;100.00
4392;BME280;2210;51.938;8.488;2023-06-22T00:48:44;100727.22;;;20.14;100.00
4392;BME280;2210;51.938;8.488;2023-06-22T00:52:44;100732.31;;;20.12;100.00
4392;BME280;2210;51.938;8.488;2023-06-22T00:56:46;100746.81;;;20.14;100.00
4392;BME280;2210;51.938;8.488;2023-06-22T01:00:55;100727.88;;;20.06;100.00
4392;BME280;2210;51.938;8.488;2023-06-22T01:04:58;100720.34;;;20.07;100.00
4392;BME280;2210;51.938;8.488;2023-06-22T01:09:04;100726.75;;;20.07;100.00
4392;BME280;2210;51.938;8.488;2023-06-22T01:17:40;100728.34;;;20.18;100.00
4392;BME280;2210;51.938;8.488;2023-06-22T01:21:46;100730.53;;;20.21;100.00
4392;BME280;2210;51.938;8.488;2023-06-22T01:25:53;100736.94;;;20.22;100.00
4392;BME280;2210;51.938;8.488;2023-06-22T01:29:58;100743.41;;;20.23;100.00
4392;BME280;2210;51.938;8.488;2023-06-22T01:34:08;100735.09;;;20.12;100.00
4392;BME280;2210;51.938;8.488;2023-06-22T01:38:15;100732.56;;;20.16;100.00
4392;BME280;2210;51.938;8.488;2023-06-22T01:42:18;100731.53;;;20.07;100.00
4392;BME280;2210;51.938;8.488;2023-06-22T01:46:18;100730.97;;;20.04;100.00
4392;BME280;2210;51.938;8.488;2023-06-22T01:50:22;100729.56;;;20.07;100.00
4392;BME280;2210;51.938;8.488;2023-06-22T01:54:29;100731.94;;;19.95;100.00
4392;BME280;2210;51.938;8.488;2023-06-22T02:07:18;100730.31;;;19.88;100.00
4392;BME280;2210;51.938;8.488;2023-06-22T02:11:30;100735.38;;;19.86;100.00
4392;BME280;2210;51.938;8.488;2023-06-22T02:15:32;100743.16;;;19.90;100.00
4392;BME280;2210;51.938;8.488;2023-06-22T02:19:36;100737.63;;;19.84;100.00
4392;BME280;2210;51.938;8.488;2023-06-22T02:23:40;100740.41;;;19.84;100.00
4392;BME280;2210;51.938;8.488;2023-06-22T02:27:40;100734.88;;;19.79;100.00
4392;BME280;2210;51.938;8.488;2023-06-22T02:31:40;100738.78;;;19.83;100.00
4392;BME280;2210;51.938;8.488;2023-06-22T02:35:41;100742.13;;;19.80;100.00
4392;BME280;2210;51.938;8.488;2023-06-22T02:39:45;100743.31;;;19.74;100.00
4392;BME280;2210;51.938;8.488;2023-06-22T02:43:46;100738.78;;;19.78;100.00
4392;BME280;2210;51.938;8.488;2023-06-22T02:47:46;100742.72;;;19.77;100.00
4392;BME280;2210;51.938;8.488;2023-06-22T02:51:48;100741.03;;;19.76;100.00
4392;BME280;2210;51.938;8.488;2023-06-22T02:55:48;100738.56;;;19.69;100.00
4392;BME280;2210;51.938;8.488;2023-06-22T02:59:51;100740.47;;;19.79;100.00
4392;BME280;2210;51.938;8.488;2023-06-22T03:04:04;100742.72;;;19.77;100.00
4392;BME280;2210;51.938;8.488;2023-06-22T03:08:14;100746.69;;;19.71;100.00
4392;BME280;2210;51.938;8.488;2023-06-22T03:12:14;100732.72;;;19.71;100.00
4392;BME280;2210;51.938;8.488;2023-06-22T03:16:14;100737.72;;;19.74;100.00
4392;BME280;2210;51.938;8.488;2023-06-22T03:20:17;100739.47;;;19.65;100.00
4392;BME280;2210;51.938;8.488;2023-06-22T03:24:21;100736.38;;;19.66;100.00
4392;BME280;2210;51.938;8.488;2023-06-22T03:28:31;100724.69;;;19.59;100.00
4392;BME280;2210;51.938;8.488;2023-06-22T03:32:31;100728.63;;;19.58;100.00
4392;BME280;2210;51.938;8.488;2023-06-22T03:36:49;100741.22;;;19.55;100.00
4392;BME280;2210;51.938;8.488;2023-06-22T03:40:50;100739.53;;;19.54;100.00
4392;BME280;2210;51.938;8.488;2023-06-22T03:44:53;100740.06;;;19.62;100.00
4392;BME280;2210;51.938;8.488;2023-06-22T03:48:53;100731.00;;;19.75;100.00
4392;BME280;2210;51.938;8.488;2023-06-22T03:52:53;100719.75;;;19.80;100.00
4392;BME280;2210;51.938;8.488;2023-06-22T03:56:54;100721.38;;;19.86;100.00
4392;BME280;2210;51.938;8.488;2023-06-22T04:00:54;100716.31;;;19.88;100.00
4392;BME280;2210;51.938;8.488;2023-06-22T04:04:57;100712.66;;;19.93;100.00
4392;BME280;2210;51.938;8.488;2023-06-22T04:09:00;100716.81;;;19.96;100.00
4392;BME280;2210;51.938;8.488;2023-06-22T04:13:03;100721.88;;;19.94;100.00
4392;BME280;2210;51.938;8.488;2023-06-22T04:17:16;100728.31;;;19.94;100.00
4392;BME280;2210;51.938;8.488;2023-06-22T04:21:17;100731.22;;;20.08;100.00
4392;BME280;2210;51.938;8.488;2023-06-22T04:25:31;100726.09;;;20.15;100.00
4392;BME280;2210;51.938;8.488;2023-06-22T04:29:34;100732.13;;;20.28;100.00
4392;BME280;2210;51.938;8.488;2023-06-22T04:33:44;100727.72;;;20.21;100.00
4392;BME280;2210;51.938;8.488;2023-06-22T04:37:48;100737.41;;;20.29;100.00
4392;BME280;2210;51.938;8.488;2023-06-22T04:41:49;100729.28;;;20.33;100.00
4392;BME280;2210;51.938;8.488;2023-06-22T04:45:51;100719.69;;;20.39;100.00
4392;BME280;2210;51.938;8.488;2023-06-22T04:49:58;100723.06;;;20.36;100.00
4392;BME280;2210;51.938;8.488;2023-06-22T04:53:58;100716.88;;;20.39;100.00
4392;BME280;2210;51.938;8.488;2023-06-22T04:58:07;100719.78;;;20.53;100.00
4392;BME280;2210;51.938;8.488;2023-06-22T05:02:08;100718.81;;;20.63;100.00
4392;BME280;2210;51.938;8.488;2023-06-22T05:06:08;100719.78;;;20.77;100.00
4392;BME280;2210;51.938;8.488;2023-06-22T05:10:10;100723.88;;;20.85;100.00
4392;BME280;2210;51.938;8.488;2023-06-22T05:14:12;100719.84;;;20.91;100.00
4392;BME280;2210;51.938;8.488;2023-06-22T05:18:12;100708.19;;;21.03;100.00
4392;BME280;2210;51.938;8.488;2023-06-22T05:22:22;100714.78;;;21.12;100.00
4392;BME280;2210;51.938;8.488;2023-06-22T05:26:30;100711.47;;;21.43;100.00
4392;BME280;2210;51.938;8.488;2023-06-22T05:30:30;100703.78;;;21.68;100.00
4392;BME280;2210;51.938;8.488;2023-06-22T05:34:34;100703.59;;;21.78;100.00
4392;BME280;2210;51.938;8.488;2023-06-22T05:38:38;100699.13;;;21.77;99.42
4392;BME280;2210;51.938;8.488;2023-06-22T05:42:45;100701.00;;;21.82;100.00
4392;BME280;2210;51.938;8.488;2023-06-22T05:46:45;100717.34;;;21.94;100.00
4392;BME280;2210;51.938;8.488;2023-06-22T05:50:46;100713.19;;;21.91;100.00
4392;BME280;2210;51.938;8.488;2023-06-22T05:54:47;100715.44;;;21.89;99.94
4392;BME280;2210;51.938;8.488;2023-06-22T05:58:47;100719.63;;;21.92;99.79
4392;BME280;2210;51.938;8.488;2023-06-22T06:02:47;100720.47;;;22.06;100.00
4392;BME280;2210;51.938;8.488;2023-06-22T06:06:55;100725.47;;;22.09;98.54
4392;BME280;2210;51.938;8.488;2023-06-22T06:10:55;100722.16;;;22.07;98.36
4392;BME280;2210;51.938;8.488;2023-06-22T06:15:04;100727.13;;;22.10;100.00
4392;BME280;2210;51.938;8.488;2023-06-22T06:19:07;100726.91;;;22.20;100.00
4392;BME280;2210;51.938;8.488;2023-06-22T06:23:07;100726.91;;;22.20;99.25
4392;BME280;2210;51.938;8.488;2023-06-22T06:27:17;100729.84;;;22.15;98.80
4392;BME280;2210;51.938;8.488;2023-06-22T06:31:18;100730.03;;;22.19;100.00
4392;BME280;2210;51.938;8.488;2023-06-22T06:35:27;100728.28;;;22.23;100.00
4392;BME280;2210;51.938;8.488;2023-06-22T06:39:43;100730.06;;;22.33;100.00
4392;BME280;2210;51.938;8.488;2023-06-22T06:43:47;100719.16;;;22.45;100.00
4392;BME280;2210;51.938;8.488;2023-06-22T06:47:47;100719.25;;;22.54;99.90
4392;BME280;2210;51.938;8.488;2023-06-22T06:51:47;100719.84;;;22.65;97.79
4392;BME280;2210;51.938;8.488;2023-06-22T06:55:51;100726.91;;;22.76;97.20
4392;BME280;2210;51.938;8.488;2023-06-22T06:59:52;100721.94;;;22.73;96.98
4392;BME280;2210;51.938;8.488;2023-06-22T07:03:58;100724.25;;;22.71;97.05
4392;BME280;2210;51.938;8.488;2023-06-22T07:08:01;100726.50;;;22.69;97.81
4392;BME280;2210;51.938;8.488;2023-06-22T07:12:02;100725.88;;;22.72;98.61
4392;BME280;2210;51.938;8.488;2023-06-22T07:16:05;100734.53;;;22.76;97.40
4392;BME280;2210;51.938;8.488;2023-06-22T07:20:06;100728.69;;;22.86;97.97
4392;BME280;2210;51.938;8.488;2023-06-22T07:24:13;100725.97;;;22.81;97.09
4392;BME280;2210;51.938;8.488;2023-06-22T07:28:13;100722.75;;;22.87;97.12
4392;BME280;2210;51.938;8.488;2023-06-22T07:32:13;100726.91;;;22.90;96.17
4392;BME280;2210;51.938;8.488;2023-06-22T07:36:14;100720.63;;;22.93;96.56
4392;BME280;2210;51.938;8.488;2023-06-22T07:40:14;100731.19;;;22.87;95.47
4392;BME280;2210;51.938;8.488;2023-06-22T07:44:17;100724.53;;;22.83;95.98
4392;BME280;2210;51.938;8.488;2023-06-22T07:48:30;100719.97;;;22.73;96.58
4392;BME280;2210;51.938;8.488;2023-06-22T07:52:36;100710.28;;;22.66;97.62
4392;BME280;2210;51.938;8.488;2023-06-22T07:56:37;100712.34;;;22.74;98.32
4392;BME280;2210;51.938;8.488;2023-06-22T08:00:40;100715.16;;;22.74;98.10
4392;BME280;2210;51.938;8.488;2023-06-22T08:04:41;100715.06;;;22.65;100.00
4392;BME280;2210;51.938;8.488;2023-06-22T08:08:41;100710.28;;;22.66;100.00
4392;BME280;2210;51.938;8.488;2023-06-22T08:12:43;100706.19;;;22.72;100.00
4392;BME280;2210;51.938;8.488;2023-06-22T08:16:43;100713.16;;;22.88;100.00
4392;BME280;2210;51.938;8.488;2023-06-22T08:20:50;100707.81;;;23.01;100.00
4392;BME280;2210;51.938;8.488;2023-06-22T08:24:50;100694.47;;;23.06;99.17
4392;BME280;2210;51.938;8.488;2023-06-22T08:28:54;100674.41;;;23.45;100.00
4392;BME280;2210;51.938;8.488;2023-06-22T08:33:13;100656.66;;;23.67;99.98
4392;BME280;2210;51.938;8.488;2023-06-22T08:37:13;100652.78;;;23.85;95.03
4392;BME280;2210;51.938;8.488;2023-06-22T08:41:17;100667.88;;;24.38;93.16
4392;BME280;2210;51.938;8.488;2023-06-22T08:45:17;100668.88;;;24.34;89.46
4392;BME280;2210;51.938;8.488;2023-06-22T08:49:18;100659.75;;;24.28;93.03
4392;BME280;2210;51.938;8.488;2023-06-22T08:53:18;100649.59;;;24.10;93.23
4392;BME280;2210;51.938;8.488;2023-06-22T08:57:19;100643.88;;;23.92;92.83
4392;BME280;2210;51.938;8.488;2023-06-22T09:01:25;100634.56;;;24.32;90.85
4392;BME280;2210;51.938;8.488;2023-06-22T09:05:32;100632.91;;;24.48;85.90
4392;BME280;2210;51.938;8.488;2023-06-22T09:09:32;100630.44;;;24.38;86.69
4392;BME280;2210;51.938;8.488;2023-06-22T09:13:32;100635.41;;;24.41;87.53
4392;BME280;2210;51.938;8.488;2023-06-22T09:17:40;100624.81;;;24.38;89.97
4392;BME280;2210;51.938;8.488;2023-06-22T09:21:44;100640.06;;;24.54;86.94
4392;BME280;2210;51.938;8.488;2023-06-22T09:25:47;100626.84;;;24.72;85.24
4392;BME280;2210;51.938;8.488;2023-06-22T09:29:49;100621.88;;;24.87;87.89
4392;BME280;2210;51.938;8.488;2023-06-22T09:33:49;100623.03;;;25.03;88.47
4392;BME280;2210;51.938;8.488;2023-06-22T09:37:50;100634.66;;;24.84;85.81
4392;BME280;2210;51.938;8.488;2023-06-22T09:41:50;100624.84;;;24.82;88.17
4392;BME280;2210;51.938;8.488;2023-06-22T09:45:51;100622.69;;;24.70;87.81
4392;BME280;2210;51.938;8.488;2023-06-22T09:49:51;100615.75;;;24.76;87.04
4392;BME280;2210;51.938;8.488;2023-06-22T09:53:52;100599.78;;;25.06;86.58
4392;BME280;2210;51.938;8.488;2023-06-22T09:58:00;100594.06;;;25.50;85.97
4392;BME280;2210;51.938;8.488;2023-06-22T10:02:03;100598.75;;;25.46;85.46
4392;BME280;2210;51.938;8.488;2023-06-22T10:06:07;100585.72;;;25.63;89.24
4392;BME280;2210;51.938;8.488;2023-06-22T10:10:09;100590.00;;;25.69;85.26
4392;BME280;2210;51.938;8.488;2023-06-22T10:14:09;100594.00;;;26.06;79.76
4392;BME280;2210;51.938;8.488;2023-06-22T10:18:12;100594.16;;;26.10;80.84
4392;BME280;2210;51.938;8.488;2023-06-22T10:22:13;100595.59;;;26.16;80.21
4392;BME280;2210;51.938;8.488;2023-06-22T10:26:13;100587.81;;;26.13;78.72
4392;BME280;2210;51.938;8.488;2023-06-22T10:30:15;100581.63;;;26.41;78.30
4392;BME280;2210;51.938;8.488;2023-06-22T10:34:15;100586.53;;;26.02;78.19
4392;BME280;2210;51.938;8.488;2023-06-22T10:38:15;100582.81;;;26.40;79.01
4392;BME280;2210;51.938;8.488;2023-06-22T10:42:19;100576.28;;;26.48;78.32
4392;BME280;2210;51.938;8.488;2023-06-22T10:46:19;100553.09;;;26.76;77.56
4392;BME280;2210;51.938;8.488;2023-06-22T10:50:32;100541.91;;;26.58;74.60
4392;BME280;2210;51.938;8.488;2023-06-22T10:54:32;100529.38;;;26.68;76.46
4392;BME280;2210;51.938;8.488;2023-06-22T10:58:39;100527.56;;;26.64;76.39
4392;BME280;2210;51.938;8.488;2023-06-22T11:02:40;100509.06;;;26.66;74.63
4392;BME280;2210;51.938;8.488;2023-06-22T11:06:43;100519.53;;;26.53;75.81
4392;BME280;2210;51.938;8.488;2023-06-22T11:10:44;100512.94;;;26.62;74.50
4392;BME280;2210;51.938;8.488;2023-06-22T11:14:44;100508.53;;;26.52;73.96
4392;BME280;2210;51.938;8.488;2023-06-22T11:18:57;100501.81;;;26.44;76.59
4392;BME280;2210;51.938;8.488;2023-06-22T11:23:00;100491.97;;;26.63;74.83
4392;BME280;2210;51.938;8.488;2023-06-22T11:27:01;100482.22;;;26.39;74.51
4392;BME280;2210;51.938;8.488;2023-06-22T11:31:02;100491.88;;;26.17;75.21
4392;BME280;2210;51.938;8.488;2023-06-22T11:35:03;100496.91;;;26.11;78.66
4392;BME280;2210;51.938;8.488;2023-06-22T11:39:03;100490.31;;;25.98;80.21
4392;BME280;2210;51.938;8.488;2023-06-22T11:43:05;100484.25;;;25.87;80.22
4392;BME280;2210;51.938;8.488;2023-06-22T11:47:05;100468.28;;;25.91;78.58
4392;BME280;2210;51.938;8.488;2023-06-22T11:51:06;100466.03;;;26.06;78.82
4392;BME280;2210;51.938;8.488;2023-06-22T11:55:08;100452.59;;;26.03;79.15
4392;BME280;2210;51.938;8.488;2023-06-22T11:59:08;100440.88;;;26.13;80.08
4392;BME280;2210;51.938;8.488;2023-06-22T12:03:08;100440.25;;;26.07;80.67
4392;BME280;2210;51.938;8.488;2023-06-22T12:07:09;100451.91;;;26.06;78.39
4392;BME280;2210;51.938;8.488;2023-06-22T12:11:13;100456.41;;;25.98;78.80
4392;BME280;2210;51.938;8.488;2023-06-22T12:15:19;100469.53;;;25.73;78.08
4392;BME280;2210;51.938;8.488;2023-06-22T12:19:19;100481.72;;;25.65;85.23
4392;BME280;2210;51.938;8.488;2023-06-22T12:23:20;100494.09;;;25.51;87.32
4392;BME280;2210;51.938;8.488;2023-06-22T12:27:20;100493.50;;;25.37;88.51
4392;BME280;2210;51.938;8.488;2023-06-22T12:31:32;100490.84;;;25.32;88.75
4392;BME280;2210;51.938;8.488;2023-06-22T12:35:33;100499.47;;;25.27;87.21
4392;BME280;2210;51.938;8.488;2023-06-22T12:39:33;100495.50;;;25.28;87.16
4392;BME280;2210;51.938;8.488;2023-06-22T12:43:36;100502.81;;;25.29;87.01
4392;BME280;2210;51.938;8.488;2023-06-22T12:47:36;100495.22;;;25.20;87.41
4392;BME280;2210;51.938;8.488;2023-06-22T12:51:41;100475.63;;;25.15;92.59
4392;BME280;2210;51.938;8.488;2023-06-22T12:55:42;100470.50;;;25.08;99.50
4392;BME280;2210;51.938;8.488;2023-06-22T12:59:42;100452.16;;;24.85;100.00
4392;BME280;2210;51.938;8.488;2023-06-22T13:03:42;100428.50;;;24.60;100.00
4392;BME280;2210;51.938;8.488;2023-06-22T13:07:43;100428.38;;;24.21;100.00
4392;BME280;2210;51.938;8.488;2023-06-22T13:11:43;100429.72;;;24.06;100.00
4392;BME280;2210;51.938;8.488;2023-06-22T13:15:43;100440.44;;;23.86;100.00
4392;BME280;2210;51.938;8.488;2023-06-22T13:19:46;100447.53;;;23.75;100.00
4392;BME280;2210;51.938;8.488;2023-06-22T13:23:47;100460.78;;;23.66;100.00
4392;BME280;2210;51.938;8.488;2023-06-22T13:27:50;100463.75;;;23.69;100.00
4392;BME280;2210;51.938;8.488;2023-06-22T13:31:50;100470.72;;;23.63;100.00
4392;BME280;2210;51.938;8.488;2023-06-22T13:35:50;100460.22;;;23.46;100.00
4392;BME280;2210;51.938;8.488;2023-06-22T13:40:07;100465.13;;;23.23;100.00
4392;BME280;2210;51.938;8.488;2023-06-22T13:44:07;100490.63;;;23.04;100.00
4392;BME280;2210;51.938;8.488;2023-06-22T13:48:14;100496.56;;;22.71;100.00
4392;BME280;2210;51.938;8.488;2023-06-22T13:52:17;100474.09;;;22.48;100.00
4392;BME280;2210;51.938;8.488;2023-06-22T13:56:18;100441.28;;;22.35;100.00
4392;BME280;2210;51.938;8.488;2023-06-22T14:00:24;100458.47;;;22.19;100.00
4392;BME280;2210;51.938;8.488;2023-06-22T14:04:25;100420.44;;;22.13;100.00
4392;BME280;2210;51.938;8.488;2023-06-22T14:08:25;100356.16;;;21.89;100.00
4392;BME280;2210;51.938;8.488;2023-06-22T14:12:26;100342.50;;;21.73;100.00
4392;BME280;2210;51.938;8.488;2023-06-22T14:16:26;100338.84;;;21.73;100.00
4392;BME280;2210;51.938;8.488;2023-06-22T14:20:26;100326.91;;;21.81;100.00
4392;BME280;2210;51.938;8.488;2023-06-22T14:24:36;100279.06;;;21.64;100.00
4392;BME280;2210;51.938;8.488;2023-06-22T14:28:36;100263.75;;;21.70;100.00
4392;BME280;2210;51.938;8.488;2023-06-22T14:32:46;100237.47;;;21.66;100.00
4392;BME280;2210;51.938;8.488;2023-06-22T14:36:49;100236.34;;;21.67;100.00
4392;BME280;2210;51.938;8.488;2023-06-22T14:40:49;100238.63;;;21.65;100.00
4392;BME280;2210;51.938;8.488;2023-06-22T14:44:50;100230.66;;;21.58;100.00
4392;BME280;2210;51.938;8.488;2023-06-22T14:48:50;100219.94;;;21.60;100.00
4392;BME280;2210;51.938;8.488;2023-06-22T14:52:53;100242.38;;;21.60;100.00
4392;BME280;2210;51.938;8.488;2023-06-22T14:56:54;100243.53;;;21.59;100.00
4392;BME280;2210;51.938;8.488;2023-06-22T15:01:11;100257.97;;;21.66;100.00
4392;BME280;2210;51.938;8.488;2023-06-22T15:05:14;100247.03;;;21.65;100.00
4392;BME280;2210;51.938;8.488;2023-06-22T15:09:22;100271.03;;;21.71;100.00
4392;BME280;2210;51.938;8.488;2023-06-22T15:13:22;100267.97;;;21.81;100.00
4392;BME280;2210;51.938;8.488;2023-06-22T15:17:32;100249.97;;;21.82;100.00
4392;BME280;2210;51.938;8.488;2023-06-22T15:21:35;100232.03;;;21.92;100.00
4392;BME280;2210;51.938;8.488;2023-06-22T15:25:57;100239.59;;;22.14;100.00
4392;BME280;2210;51.938;8.488;2023-06-22T15:30:08;100227.59;;;22.31;100.00
4392;BME280;2210;51.938;8.488;2023-06-22T15:34:13;100204.53;;;22.43;100.00
4392;BME280;2210;51.938;8.488;2023-06-22T15:38:14;100213.94;;;22.38;100.00
4392;BME280;2210;51.938;8.488;2023-06-22T15:42:15;100176.78;;;22.42;100.00
4392;BME280;2210;51.938;8.488;2023-06-22T15:46:15;100183.06;;;22.38;100.00
4392;BME280;2210;51.938;8.488;2023-06-22T15:50:23;100155.88;;;22.25;100.00
4392;BME280;2210;51.938;8.488;2023-06-22T15:54:23;100138.69;;;22.27;100.00
4392;BME280;2210;51.938;8.488;2023-06-22T15:58:23;100126.31;;;22.28;100.00
4392;BME280;2210;51.938;8.488;2023-06-22T16:02:25;100097.53;;;22.13;100.00
4392;BME280;2210;51.938;8.488;2023-06-22T16:06:26;100089.59;;;22.06;100.00
4392;BME280;2210;51.938;8.488;2023-06-22T16:10:30;100077.41;;;22.11;100.00
4392;BME280;2210;51.938;8.488;2023-06-22T16:14:31;100091.91;;;22.13;100.00
4392;BME280;2210;51.938;8.488;2023-06-22T16:18:31;100097.84;;;22.12;100.00
4392;BME280;2210;51.938;8.488;2023-06-22T16:22:32;100095.81;;;21.95;100.00
4392;BME280;2210;51.938;8.488;2023-06-22T16:26:52;100091.38;;;21.94;100.00
4392;BME280;2210;51.938;8.488;2023-06-22T16:30:52;100091.38;;;21.94;100.00
4392;BME280;2210;51.938;8.488;2023-06-22T16:34:53;100080.97;;;21.94;100.00
4392;BME280;2210;51.938;8.488;2023-06-22T16:38:56;100069.72;;;21.85;100.00
4392;BME280;2210;51.938;8.488;2023-06-22T16:43:05;100064.94;;;21.86;100.00
4392;BME280;2210;51.938;8.488;2023-06-22T16:47:08;100082.56;;;21.78;100.00
4392;BME280;2210;51.938;8.488;2023-06-22T16:51:12;100125.13;;;21.71;100.00
4392;BME280;2210;51.938;8.488;2023-06-22T16:55:21;100167.22;;;21.80;100.00
4392;BME280;2210;51.938;8.488;2023-06-22T16:59:27;100228.19;;;21.88;100.00
4392;BME280;2210;51.938;8.488;2023-06-22T17:03:37;100292.81;;;21.97;100.00
4392;BME280;2210;51.938;8.488;2023-06-22T17:07:58;100314.00;;;21.80;100.00
4392;BME280;2210;51.938;8.488;2023-06-22T17:12:11;100227.66;;;21.54;100.00
4392;BME280;2210;51.938;8.488;2023-06-22T17:16:16;100269.31;;;21.47;100.00
4392;BME280;2210;51.938;8.488;2023-06-22T17:20:22;100223.16;;;21.31;100.00
4392;BME280;2210;51.938;8.488;2023-06-22T17:24:32;100241.00;;;21.35;100.00
4392;BME280;2210;51.938;8.488;2023-06-22T17:29:07;100232.16;;;21.42;100.00
4392;BME280;2210;51.938;8.488;2023-06-22T17:33:08;100224.69;;;21.37;100.00
4392;BME280;2210;51.938;8.488;2023-06-22T17:37:19;100189.50;;;21.31;100.00
4392;BME280;2210;51.938;8.488;2023-06-22T17:41:19;100170.41;;;21.33;100.00
4392;BME280;2210;51.938;8.488;2023-06-22T17:45:23;100141.47;;;21.23;100.00
4392;BME280;2210;51.938;8.488;2023-06-22T17:49:35;100130.19;;;21.15;100.00
4392;BME280;2210;51.938;8.488;2023-06-22T17:53:36;100109.84;;;21.09;100.00
4392;BME280;2210;51.938;8.488;2023-06-22T17:57:39;100092.00;;;21.05;100.00
4392;BME280;2210;51.938;8.488;2023-06-22T18:01:44;100100.56;;;21.00;100.00
4392;BME280;2210;51.938;8.488;2023-06-22T18:05:46;100091.84;;;21.01;100.00
4392;BME280;2210;51.938;8.488;2023-06-22T18:09:51;100074.81;;;20.98;100.00
4392;BME280;2210;51.938;8.488;2023-06-22T18:13:53;100061.16;;;20.96;100.00
4392;BME280;2210;51.938;8.488;2023-06-22T18:17:58;100052.41;;;20.98;100.00
4392;BME280;2210;51.938;8.488;2023-06-22T18:22:01;100041.31;;;20.93;100.00
4392;BME280;2210;51.938;8.488;2023-06-22T18:26:05;100044.97;;;20.93;100.00
4392;BME280;2210;51.938;8.488;2023-06-22T18:30:06;100025.16;;;20.89;100.00
4392;BME280;2210;51.938;8.488;2023-06-22T18:34:13;100038.84;;;20.91;100.00
4392;BME280;2210;51.938;8.488;2023-06-22T18:38:13;100038.16;;;20.85;100.00
4392;BME280;2210;51.938;8.488;2023-06-22T18:42:14;100053.50;;;20.88;100.00
4392;BME280;2210;51.938;8.488;2023-06-22T18:46:32;100045.22;;;20.83;100.00
4392;BME280;2210;51.938;8.488;2023-06-22T18:50:47;100029.53;;;20.82;100.00
4392;BME280;2210;51.938;8.488;2023-06-22T18:54:52;100032.88;;;20.84;100.00
4392;BME280;2210;51.938;8.488;2023-06-22T18:59:48;100034.66;;;20.80;100.00
4392;BME280;2210;51.938;8.488;2023-06-22T19:04:16;100048.53;;;20.85;100.00
4392;BME280;2210;51.938;8.488;2023-06-22T19:08:22;100041.06;;;20.80;100.00
4392;BME280;2210;51.938;8.488;2023-06-22T19:12:43;100040.69;;;20.73;100.00
4392;BME280;2210;51.938;8.488;2023-06-22T19:17:01;100036.94;;;20.78;100.00
4392;BME280;2210;51.938;8.488;2023-06-22T19:25:20;100035.44;;;20.58;100.00
4392;BME280;2210;51.938;8.488;2023-06-22T19:29:24;100032.44;;;20.54;100.00
4392;BME280;2210;51.938;8.488;2023-06-22T19:33:33;100039.09;;;20.44;100.00
4392;BME280;2210;51.938;8.488;2023-06-22T19:37:37;100027.50;;;20.37;100.00
4392;BME280;2210;51.938;8.488;2023-06-22T19:41:47;100018.94;;;20.33;100.00
4392;BME280;2210;51.938;8.488;2023-06-22T19:45:47;100017.38;;;20.27;100.00
4392;BME280;2210;51.938;8.488;2023-06-22T19:49:48;100014.91;;;20.26;100.00
4392;BME280;2210;51.938;8.488;2023-06-22T19:53:48;100013.88;;;20.21;100.00
4392;BME280;2210;51.938;8.488;2023-06-22T19:57:48;100016.69;;;20.21;100.00
4392;BME280;2210;51.938;8.488;2023-06-22T20:01:50;100013.88;;;20.21;100.00
4392;BME280;2210;51.938;8.488;2023-06-22T20:05:50;100009.94;;;20.23;100.00
4392;BME280;2210;51.938;8.488;2023-06-22T20:10:18;100012.00;;;20.17;100.00
4392;BME280;2210;51.938;8.488;2023-06-22T20:14:21;100026.09;;;20.26;100.00
4392;BME280;2210;51.938;8.488;2023-06-22T20:18:22;100006.19;;;20.27;100.00
4392;BME280;2210;51.938;8.488;2023-06-22T20:22:25;99994.56;;;20.34;100.00
4392;BME280;2210;51.938;8.488;2023-06-22T20:31:35;100002.25;;;20.28;100.00
4392;BME280;2210;51.938;8.488;2023-06-22T20:35:43;99993.16;;;20.23;100.00
4392;BME280;2210;51.938;8.488;2023-06-22T20:39:44;99983.91;;;20.22;100.00
4392;BME280;2210;51.938;8.488;2023-06-22T20:43:52;99985.25;;;20.25;100.00
4392;BME280;2210;51.938;8.488;2023-06-22T20:48:04;99983.28;;;20.25;100.00
4392;BME280;2210;51.938;8.488;2023-06-22T20:52:18;99963.88;;;20.29;100.00
4392;BME280;2210;51.938;8.488;2023-06-22T20:56:23;99967.81;;;20.28;100.00
4392;BME280;2210;51.938;8.488;2023-06-22T21:00:46;99982.00;;;20.31;100.00
4392;BME280;2210;51.938;8.488;2023-06-22T21:04:46;99985.78;;;20.27;100.00
4392;BME280;2210;51.938;8.488;2023-06-22T21:08:52;99986.59;;;20.27;100.00
4392;BME280;2210;51.938;8.488;2023-06-22T21:12:52;99981.63;;;20.24;100.00
4392;BME280;2210;51.938;8.488;2023-06-22T21:16:53;99990.53;;;20.26;100.00
4392;BME280;2210;51.938;8.488;2023-06-22T21:20:53;99997.09;;;20.21;100.00
4392;BME280;2210;51.938;8.488;2023-06-22T21:25:13;99987.13;;;20.15;100.00
4392;BME280;2210;51.938;8.488;2023-06-22T21:29:17;99982.97;;;20.27;100.00
4392;BME280;2210;51.938;8.488;2023-06-22T21:33:26;99980.28;;;20.21;100.00
4392;BME280;2210;51.938;8.488;2023-06-22T21:37:29;99972.41;;;20.24;100.00
4392;BME280;2210;51.938;8.488;2023-06-22T21:41:36;99956.00;;;20.31;100.00
4392;BME280;2210;51.938;8.488;2023-06-22T21:45:46;99941.75;;;20.18;100.00
4392;BME280;2210;51.938;8.488;2023-06-22T21:49:58;99953.75;;;20.19;100.00
4392;BME280;2210;51.938;8.488;2023-06-22T21:53:58;99948.81;;;20.16;100.00
4392;BME280;2210;51.938;8.488;2023-06-22T21:57:59;99953.50;;;20.29;100.00
4392;BME280;2210;51.938;8.488;2023-06-22T22:01:59;99958.47;;;20.32;100.00